sensor_id;sensor_type;location;lat;lon;timestamp;temperature;humidity
7476;DHT22;3779;49.216;8.650;2023-03-17T06:20:14;18.30;33.60
7476;DHT22;3779;49.216;8.650;2023-03-17T06:23:00;18.40;33.40
7476;DHT22;3779;49.216;8.650;2023-03-17T06:25:46;18.40;33.50
7476;DHT22;3779;49.216;8.650;2023-03-17T06:28:32;18.40;33.20
7476;DHT22;3779;49.216;8.650;2023-03-17T06:31:18;18.40;33.50
7476;DHT22;3779;49.216;8.650;2023-03-17T06:34:04;18.40;33.60
7476;DHT22;3779;49.216;8.650;2023-03-17T06:36:50;18.40;33.40
7476;DHT22;3779;49.216;8.650;2023-03-17T06:39:37;18.60;33.70
7476;DHT22;3779;49.216;8.650;2023-03-17T07:38:15;18.90;35.30
7476;DHT22;3779;49.216;8.650;2023-03-17T07:47:15;18.90;34.90
7476;DHT22;3779;49.216;8.650;2023-03-17T07:51:26;18.90;36.00
7476;DHT22;3779;49.216;8.650;2023-03-17T08:01:04;19.00;36.10
7476;DHT22;3779;49.216;8.650;2023-03-17T08:04:10;18.70;35.20
7476;DHT22;3779;49.216;8.650;2023-03-17T08:08:36;18.80;35.40
7476;DHT22;3779;49.216;8.650;2023-03-17T08:11:40;18.80;35.20
7476;DHT22;3779;49.216;8.650;2023-03-17T08:14:56;18.90;34.70
7476;DHT22;3779;49.216;8.650;2023-03-17T08:19:05;18.90;34.80
7476;DHT22;3779;49.216;8.650;2023-03-17T08:22:28;18.90;35.30
7476;DHT22;3779;49.216;8.650;2023-03-17T08:25:55;18.90;35.60
7476;DHT22;3779;49.216;8.650;2023-03-17T08:29:54;19.00;34.90
7476;DHT22;3779;49.216;8.650;2023-03-17T08:33:57;18.40;35.60
7476;DHT22;3779;49.216;8.650;2023-03-17T08:37:30;19.00;36.10
7476;DHT22;3779;49.216;8.650;2023-03-17T08:41:23;19.10;35.80
7476;DHT22;3779;49.216;8.650;2023-03-17T08:45:24;19.10;35.10
7476;DHT22;3779;49.216;8.650;2023-03-17T08:49:57;19.10;35.40
7476;DHT22;3779;49.216;8.650;2023-03-17T09:02:30;19.10;37.20
7476;DHT22;3779;49.216;8.650;2023-03-17T09:05:59;19.20;37.70
7476;DHT22;3779;49.216;8.650;2023-03-17T09:09:17;19.30;36.90
7476;DHT22;3779;49.216;8.650;2023-03-17T09:13:37;19.30;36.20
7476;DHT22;3779;49.216;8.650;2023-03-17T09:18:33;19.20;36.80
7476;DHT22;3779;49.216;8.650;2023-03-17T09:23:33;19.20;37.20
7476;DHT22;3779;49.216;8.650;2023-03-17T09:27:28;19.30;37.50
7476;DHT22;3779;49.216;8.650;2023-03-17T09:31:03;19.40;37.30
7476;DHT22;3779;49.216;8.650;2023-03-17T09:40:19;19.40;37.70
7476;DHT22;3779;49.216;8.650;2023-03-17T10:15:39;19.50;38.70
7476;DHT22;3779;49.216;8.650;2023-03-17T10:20:28;19.50;37.80
7476;DHT22;3779;49.216;8.650;2023-03-17T10:24:24;19.50;39.40
7476;DHT22;3779;49.216;8.650;2023-03-17T10:32:11;19.50;39.80
7476;DHT22;3779;49.216;8.650;2023-03-17T10:37:03;19.50;39.00
7476;DHT22;3779;49.216;8.650;2023-03-17T10:40:27;19.60;38.50
7476;DHT22;3779;49.216;8.650;2023-03-17T10:44:54;19.70;37.70
7476;DHT22;3779;49.216;8.650;2023-03-17T10:47:53;19.60;36.80
7476;DHT22;3779;49.216;8.650;2023-03-17T10:57:06;19.60;37.10
7476;DHT22;3779;49.216;8.650;2023-03-17T11:00:54;19.60;37.30
7476;DHT22;3779;49.216;8.650;2023-03-17T11:07:44;19.60;37.30
7476;DHT22;3779;49.216;8.650;2023-03-17T11:12:04;19.60;38.40
7476;DHT22;3779;49.216;8.650;2023-03-17T11:15:42;19.60;38.90
7476;DHT22;3779;49.216;8.650;2023-03-17T11:20:14;19.10;38.40
7476;DHT22;3779;49.216;8.650;2023-03-17T11:28:56;19.70;37.60
7476;DHT22;3779;49.216;8.650;2023-03-17T11:32:52;19.70;36.90
7476;DHT22;3779;49.216;8.650;2023-03-17T11:36:34;19.60;38.50
7476;DHT22;3779;49.216;8.650;2023-03-17T11:39:51;19.60;37.30
7476;DHT22;3779;49.216;8.650;2023-03-17T11:49:22;19.70;38.00
7476;DHT22;3779;49.216;8.650;2023-03-17T11:53:08;19.70;37.40
7476;DHT22;3779;49.216;8.650;2023-03-17T11:56:45;19.70;37.90
7476;DHT22;3779;49.216;8.650;2023-03-17T12:00:05;19.70;37.10
7476;DHT22;3779;49.216;8.650;2023-03-17T12:06:51;19.70;36.80
7476;DHT22;3779;49.216;8.650;2023-03-17T12:11:29;19.60;38.00
7476;DHT22;3779;49.216;8.650;2023-03-17T12:19:39;19.20;37.80
7476;DHT22;3779;49.216;8.650;2023-03-17T13:40:57;19.70;39.50
7476;DHT22;3779;49.216;8.650;2023-03-17T13:47:33;19.70;40.10
7476;DHT22;3779;49.216;8.650;2023-03-17T13:56:02;19.50;38.90
7476;DHT22;3779;49.216;8.650;2023-03-17T14:00:47;19.70;40.20
7476;DHT22;3779;49.216;8.650;2023-03-17T14:05:26;19.70;40.40
7476;DHT22;3779;49.216;8.650;2023-03-17T14:10:03;19.70;40.20
7476;DHT22;3779;49.216;8.650;2023-03-17T14:24:17;19.70;40.40
7476;DHT22;3779;49.216;8.650;2023-03-17T14:29:08;19.80;39.90
7476;DHT22;3779;49.216;8.650;2023-03-17T14:34:20;19.80;40.00
7476;DHT22;3779;49.216;8.650;2023-03-17T14:44:00;19.70;39.40
7476;DHT22;3779;49.216;8.650;2023-03-17T14:47:37;19.70;39.30
7476;DHT22;3779;49.216;8.650;2023-03-17T15:07:00;19.50;40.00
7476;DHT22;3779;49.216;8.650;2023-03-17T15:11:46;19.50;40.10
7476;DHT22;3779;49.216;8.650;2023-03-17T15:16:49;19.50;40.20
7476;DHT22;3779;49.216;8.650;2023-03-17T15:21:31;19.50;40.40
7476;DHT22;3779;49.216;8.650;2023-03-17T15:26:29;19.50;40.50
7476;DHT22;3779;49.216;8.650;2023-03-17T15:31:04;19.50;40.70
7476;DHT22;3779;49.216;8.650;2023-03-17T17:56:06;19.20;43.60
7476;DHT22;3779;49.216;8.650;2023-03-17T17:59:22;19.20;43.60
7476;DHT22;3779;49.216;8.650;2023-03-17T18:07:51;19.20;43.60
7476;DHT22;3779;49.216;8.650;2023-03-17T19:13:23;19.10;44.30
7476;DHT22;3779;49.216;8.650;2023-03-17T19:16:59;19.10;44.30
7476;DHT22;3779;49.216;8.650;2023-03-17T19:20:30;19.10;44.40
7476;DHT22;3779;49.216;8.650;2023-03-17T19:24:07;19.10;44.50
7476;DHT22;3779;49.216;8.650;2023-03-17T19:28:15;19.10;44.20
7476;DHT22;3779;49.216;8.650;2023-03-17T19:31:43;19.10;44.40
7476;DHT22;3779;49.216;8.650;2023-03-17T19:34:36;19.10;44.50
7476;DHT22;3779;49.216;8.650;2023-03-17T19:37:31;19.10;44.60
7476;DHT22;3779;49.216;8.650;2023-03-17T19:40:52;19.20;44.70
7476;DHT22;3779;49.216;8.650;2023-03-17T19:43:54;19.10;44.60
7476;DHT22;3779;49.216;8.650;2023-03-17T19:46:46;19.10;44.30
7476;DHT22;3779;49.216;8.650;2023-03-17T19:49:40;19.10;44.60
7476;DHT22;3779;49.216;8.650;2023-03-17T19:52:43;19.10;44.40
7476;DHT22;3779;49.216;8.650;2023-03-17T19:55:36;19.10;44.40
7476;DHT22;3779;49.216;8.650;2023-03-17T19:58:29;19.10;44.30
7476;DHT22;3779;49.216;8.650;2023-03-17T20:01:18;19.10;44.20
7476;DHT22;3779;49.216;8.650;2023-03-17T20:04:09;19.10;44.10
7476;DHT22;3779;49.216;8.650;2023-03-17T20:07:07;19.40;44.30
7476;DHT22;3779;49.216;8.650;2023-03-17T20:09:59;19.10;44.00
7476;DHT22;3779;49.216;8.650;2023-03-17T20:12:58;19.10;43.70
7476;DHT22;3779;49.216;8.650;2023-03-17T20:15:59;19.10;43.50
7476;DHT22;3779;49.216;8.650;2023-03-17T20:19:22;19.10;43.50
7476;DHT22;3779;49.216;8.650;2023-03-17T20:22:14;19.10;43.50
7476;DHT22;3779;49.216;8.650;2023-03-17T20:25:04;19.10;43.50
7476;DHT22;3779;49.216;8.650;2023-03-17T20:27:52;19.10;43.30
7476;DHT22;3779;49.216;8.650;2023-03-17T20:30:41;19.10;43.10
7476;DHT22;3779;49.216;8.650;2023-03-17T20:33:32;19.10;43.30
7476;DHT22;3779;49.216;8.650;2023-03-17T20:36:39;19.10;42.90
7476;DHT22;3779;49.216;8.650;2023-03-17T20:40:16;19.10;43.10
7476;DHT22;3779;49.216;8.650;2023-03-17T20:44:19;19.10;43.10
7476;DHT22;3779;49.216;8.650;2023-03-17T20:48:26;19.10;42.90
7476;DHT22;3779;49.216;8.650;2023-03-17T20:53:15;19.10;43.20
7476;DHT22;3779;49.216;8.650;2023-03-17T20:58:17;19.00;43.20
7476;DHT22;3779;49.216;8.650;2023-03-17T21:01:54;19.00;43.20
7476;DHT22;3779;49.216;8.650;2023-03-17T21:05:16;19.00;43.10
7476;DHT22;3779;49.216;8.650;2023-03-17T21:09:24;19.00;43.80
7476;DHT22;3779;49.216;8.650;2023-03-17T21:12:33;19.00;43.20
7476;DHT22;3779;49.216;8.650;2023-03-17T21:15:41;19.10;42.90
7476;DHT22;3779;49.216;8.650;2023-03-17T21:18:50;19.00;43.30
7476;DHT22;3779;49.216;8.650;2023-03-17T21:22:04;19.00;43.40
7476;DHT22;3779;49.216;8.650;2023-03-17T21:25:31;19.00;43.30
7476;DHT22;3779;49.216;8.650;2023-03-17T21:28:29;19.00;43.30
7476;DHT22;3779;49.216;8.650;2023-03-17T21:31:29;19.00;43.10
7476;DHT22;3779;49.216;8.650;2023-03-17T21:39:05;19.00;43.40
7476;DHT22;3779;49.216;8.650;2023-03-17T21:42:23;19.00;43.40
7476;DHT22;3779;49.216;8.650;2023-03-17T21:46:44;18.90;43.30
7476;DHT22;3779;49.216;8.650;2023-03-17T21:51:07;18.90;43.10
7476;DHT22;3779;49.216;8.650;2023-03-17T21:55:07;19.00;43.10
7476;DHT22;3779;49.216;8.650;2023-03-17T21:59:49;19.00;43.10
7476;DHT22;3779;49.216;8.650;2023-03-17T22:03:16;18.90;43.00
7476;DHT22;3779;49.216;8.650;2023-03-17T22:07:26;19.00;43.00
7476;DHT22;3779;49.216;8.650;2023-03-17T22:10:42;19.00;42.90
7476;DHT22;3779;49.216;8.650;2023-03-17T22:14:46;19.00;43.00
7476;DHT22;3779;49.216;8.650;2023-03-17T22:18:19;18.90;43.10
7476;DHT22;3779;49.216;8.650;2023-03-17T22:21:08;19.00;43.00
7476;DHT22;3779;49.216;8.650;2023-03-17T22:23:56;19.00;43.00
7476;DHT22;3779;49.216;8.650;2023-03-17T22:27:30;19.00;43.10
7476;DHT22;3779;49.216;8.650;2023-03-17T22:30:40;18.90;43.10
7476;DHT22;3779;49.216;8.650;2023-03-17T22:33:31;19.00;42.80
7476;DHT22;3779;49.216;8.650;2023-03-17T22:36:45;18.90;43.00
7476;DHT22;3779;49.216;8.650;2023-03-17T22:39:46;19.00;43.00
7476;DHT22;3779;49.216;8.650;2023-03-17T22:42:40;19.10;43.10
7476;DHT22;3779;49.216;8.650;2023-03-17T22:45:42;18.90;42.90
7476;DHT22;3779;49.216;8.650;2023-03-17T22:48:38;19.00;42.90
7476;DHT22;3779;49.216;8.650;2023-03-17T22:52:09;18.90;43.00
7476;DHT22;3779;49.216;8.650;2023-03-17T22:55:13;18.90;43.00
7476;DHT22;3779;49.216;8.650;2023-03-17T22:58:23;18.90;43.10
7476;DHT22;3779;49.216;8.650;2023-03-17T23:01:25;18.90;43.10
7476;DHT22;3779;49.216;8.650;2023-03-17T23:05:01;18.90;43.20
7476;DHT22;3779;49.216;8.650;2023-03-17T23:08:21;18.90;43.10
7476;DHT22;3779;49.216;8.650;2023-03-17T23:11:23;19.10;43.30
7476;DHT22;3779;49.216;8.650;2023-03-17T23:14:48;18.90;43.10
7476;DHT22;3779;49.216;8.650;2023-03-17T23:18:03;19.00;42.90
7476;DHT22;3779;49.216;8.650;2023-03-17T23:21:22;18.90;42.60
7476;DHT22;3779;49.216;8.650;2023-03-17T23:24:23;18.90;42.90
7476;DHT22;3779;49.216;8.650;2023-03-17T23:27:19;18.90;42.90
7476;DHT22;3779;49.216;8.650;2023-03-17T23:30:10;18.80;42.90
7476;DHT22;3779;49.216;8.650;2023-03-17T23:33:04;18.80;42.90
7476;DHT22;3779;49.216;8.650;2023-03-17T23:36:42;18.80;42.90
7476;DHT22;3779;49.216;8.650;2023-03-17T23:39:35;18.70;43.10
7476;DHT22;3779;49.216;8.650;2023-03-17T23:42:42;18.80;43.20
7476;DHT22;3779;49.216;8.650;2023-03-17T23:45:32;18.70;43.50
7476;DHT22;3779;49.216;8.650;2023-03-17T23:48:36;18.70;43.40
7476;DHT22;3779;49.216;8.650;2023-03-17T23:52:09;18.70;43.30
7476;DHT22;3779;49.216;8.650;2023-03-17T23:55:18;18.80;43.40
7476;DHT22;3779;49.216;8.650;2023-03-17T23:58:15;18.80;43.40
